sensor_id;sensor_type;location;lat;lon;timestamp;P1;durP1;ratioP1;P2;durP2;ratioP2
51810;SDS011;52468;40.116;18.296;2023-04-24T00:00:07;13.73;;;7.63;;
51810;SDS011;52468;40.116;18.296;2023-04-24T00:02:41;12.23;;;7.37;;
51810;SDS011;52468;40.116;18.296;2023-04-24T00:05:14;12.43;;;7.10;;
51810;SDS011;52468;40.116;18.296;2023-04-24T00:07:42;10.53;;;8.23;;
51810;SDS011;52468;40.116;18.296;2023-04-24T00:10:11;11.70;;;8.93;;
51810;SDS011;52468;40.116;18.296;2023-04-24T00:12:39;11.13;;;7.00;;
51810;SDS011;52468;40.116;18.296;2023-04-24T00:15:07;15.20;;;9.27;;
51810;SDS011;52468;40.116;18.296;2023-04-24T00:17:36;14.20;;;7.73;;
51810;SDS011;52468;40.116;18.296;2023-04-24T00:20:04;14.90;;;8.30;;
51810;SDS011;52468;40.116;18.296;2023-04-24T00:22:33;10.23;;;7.50;;
51810;SDS011;52468;40.116;18.296;2023-04-24T00:25:01;9.77;;;6.70;;
51810;SDS011;52468;40.116;18.296;2023-04-24T00:27:29;13.73;;;9.07;;
51810;SDS011;52468;40.116;18.296;2023-04-24T00:29:57;11.07;;;7.43;;
51810;SDS011;52468;40.116;18.296;2023-04-24T00:32:25;11.37;;;7.30;;
51810;SDS011;52468;40.116;18.296;2023-04-24T00:34:55;13.67;;;7.87;;
51810;SDS011;52468;40.116;18.296;2023-04-24T00:37:22;12.63;;;7.60;;
51810;SDS011;52468;40.116;18.296;2023-04-24T00:39:50;12.47;;;8.80;;
51810;SDS011;52468;40.116;18.296;2023-04-24T00:42:18;14.70;;;8.07;;
51810;SDS011;52468;40.116;18.296;2023-04-24T00:44:46;14.63;;;8.73;;
51810;SDS011;52468;40.116;18.296;2023-04-24T00:47:15;13.30;;;8.20;;
51810;SDS011;52468;40.116;18.296;2023-04-24T00:49:43;13.17;;;9.10;;
51810;SDS011;52468;40.116;18.296;2023-04-24T00:52:11;15.70;;;9.90;;
51810;SDS011;52468;40.116;18.296;2023-04-24T00:54:39;14.33;;;9.03;;
51810;SDS011;52468;40.116;18.296;2023-04-24T00:57:07;14.30;;;8.57;;
51810;SDS011;52468;40.116;18.296;2023-04-24T00:59:35;14.70;;;10.03;;
51810;SDS011;52468;40.116;18.296;2023-04-24T01:02:03;14.57;;;9.80;;
51810;SDS011;52468;40.116;18.296;2023-04-24T01:04:32;16.97;;;10.43;;
51810;SDS011;52468;40.116;18.296;2023-04-24T01:07:00;13.53;;;10.50;;
51810;SDS011;52468;40.116;18.296;2023-04-24T01:09:28;14.73;;;10.77;;
51810;SDS011;52468;40.116;18.296;2023-04-24T01:11:57;15.97;;;11.83;;
51810;SDS011;52468;40.116;18.296;2023-04-24T01:14:25;14.73;;;10.90;;
51810;SDS011;52468;40.116;18.296;2023-04-24T01:16:53;17.43;;;11.00;;
51810;SDS011;52468;40.116;18.296;2023-04-24T01:19:21;18.63;;;11.70;;
51810;SDS011;52468;40.116;18.296;2023-04-24T01:21:49;20.07;;;12.17;;
51810;SDS011;52468;40.116;18.296;2023-04-24T01:24:20;21.63;;;11.97;;
51810;SDS011;52468;40.116;18.296;2023-04-24T01:26:47;18.90;;;13.10;;
51810;SDS011;52468;40.116;18.296;2023-04-24T01:29:15;17.03;;;11.80;;
51810;SDS011;52468;40.116;18.296;2023-04-24T01:31:43;18.30;;;12.07;;
51810;SDS011;52468;40.116;18.296;2023-04-24T01:34:12;18.30;;;12.50;;
51810;SDS011;52468;40.116;18.296;2023-04-24T01:36:40;21.40;;;13.10;;
51810;SDS011;52468;40.116;18.296;2023-04-24T01:39:09;20.20;;;12.80;;
51810;SDS011;52468;40.116;18.296;2023-04-24T01:41:37;23.80;;;13.37;;
51810;SDS011;52468;40.116;18.296;2023-04-24T01:44:05;23.47;;;13.60;;
51810;SDS011;52468;40.116;18.296;2023-04-24T01:46:34;23.67;;;13.73;;
51810;SDS011;52468;40.116;18.296;2023-04-24T01:49:03;18.90;;;14.07;;
51810;SDS011;52468;40.116;18.296;2023-04-24T01:51:31;20.23;;;13.60;;
51810;SDS011;52468;40.116;18.296;2023-04-24T01:53:59;22.87;;;13.57;;
51810;SDS011;52468;40.116;18.296;2023-04-24T01:56:31;24.10;;;13.53;;
51810;SDS011;52468;40.116;18.296;2023-04-24T01:59:03;24.87;;;13.07;;
51810;SDS011;52468;40.116;18.296;2023-04-24T02:01:34;23.80;;;14.00;;
51810;SDS011;52468;40.116;18.296;2023-04-24T02:04:06;21.23;;;12.67;;
51810;SDS011;52468;40.116;18.296;2023-04-24T02:06:35;25.63;;;14.23;;
51810;SDS011;52468;40.116;18.296;2023-04-24T02:09:03;19.50;;;12.17;;
51810;SDS011;52468;40.116;18.296;2023-04-24T02:11:30;17.87;;;11.80;;
51810;SDS011;52468;40.116;18.296;2023-04-24T02:13:58;22.50;;;12.17;;
51810;SDS011;52468;40.116;18.296;2023-04-24T02:16:27;23.63;;;12.53;;
51810;SDS011;52468;40.116;18.296;2023-04-24T02:18:59;16.65;;;11.68;;
51810;SDS011;52468;40.116;18.296;2023-04-24T02:21:27;24.20;;;11.67;;
51810;SDS011;52468;40.116;18.296;2023-04-24T02:23:55;20.20;;;12.37;;
51810;SDS011;52468;40.116;18.296;2023-04-24T02:26:22;18.70;;;12.57;;
51810;SDS011;52468;40.116;18.296;2023-04-24T02:28:51;23.53;;;12.03;;
51810;SDS011;52468;40.116;18.296;2023-04-24T02:31:20;22.50;;;13.00;;
51810;SDS011;52468;40.116;18.296;2023-04-24T02:33:48;18.77;;;11.33;;
51810;SDS011;52468;40.116;18.296;2023-04-24T02:36:16;18.03;;;11.87;;
51810;SDS011;52468;40.116;18.296;2023-04-24T02:38:43;19.20;;;11.40;;
51810;SDS011;52468;40.116;18.296;2023-04-24T02:41:12;21.07;;;13.73;;
51810;SDS011;52468;40.116;18.296;2023-04-24T02:43:42;15.93;;;11.17;;
51810;SDS011;52468;40.116;18.296;2023-04-24T02:46:10;17.33;;;10.50;;
51810;SDS011;52468;40.116;18.296;2023-04-24T02:48:38;22.93;;;12.60;;
51810;SDS011;52468;40.116;18.296;2023-04-24T02:51:05;31.53;;;12.97;;
51810;SDS011;52468;40.116;18.296;2023-04-24T02:53:33;18.90;;;12.70;;
51810;SDS011;52468;40.116;18.296;2023-04-24T02:56:02;23.40;;;12.27;;
51810;SDS011;52468;40.116;18.296;2023-04-24T02:58:30;20.37;;;12.30;;
51810;SDS011;52468;40.116;18.296;2023-04-24T03:00:57;18.10;;;10.80;;
51810;SDS011;52468;40.116;18.296;2023-04-24T03:03:25;19.03;;;11.83;;
51810;SDS011;52468;40.116;18.296;2023-04-24T03:05:53;20.67;;;12.20;;
51810;SDS011;52468;40.116;18.296;2023-04-24T03:08:22;29.90;;;13.50;;
51810;SDS011;52468;40.116;18.296;2023-04-24T03:10:50;24.00;;;13.53;;
51810;SDS011;52468;40.116;18.296;2023-04-24T03:13:18;24.83;;;13.97;;
51810;SDS011;52468;40.116;18.296;2023-04-24T03:15:46;26.33;;;13.37;;
51810;SDS011;52468;40.116;18.296;2023-04-24T03:18:14;25.63;;;13.30;;
51810;SDS011;52468;40.116;18.296;2023-04-24T03:20:42;23.80;;;13.70;;
51810;SDS011;52468;40.116;18.296;2023-04-24T03:23:13;26.77;;;14.20;;
51810;SDS011;52468;40.116;18.296;2023-04-24T03:25:42;21.47;;;13.80;;
51810;SDS011;52468;40.116;18.296;2023-04-24T03:28:11;21.00;;;13.83;;
51810;SDS011;52468;40.116;18.296;2023-04-24T03:30:45;22.73;;;13.13;;
51810;SDS011;52468;40.116;18.296;2023-04-24T03:33:14;24.37;;;13.50;;
51810;SDS011;52468;40.116;18.296;2023-04-24T03:35:52;23.10;;;12.27;;
51810;SDS011;52468;40.116;18.296;2023-04-24T03:38:20;19.60;;;12.23;;
51810;SDS011;52468;40.116;18.296;2023-04-24T03:40:58;22.87;;;13.77;;
51810;SDS011;52468;40.116;18.296;2023-04-24T03:43:38;19.73;;;14.23;;
51810;SDS011;52468;40.116;18.296;2023-04-24T03:46:06;24.07;;;13.07;;
51810;SDS011;52468;40.116;18.296;2023-04-24T03:48:41;22.90;;;13.03;;
51810;SDS011;52468;40.116;18.296;2023-04-24T03:51:10;19.13;;;14.23;;
51810;SDS011;52468;40.116;18.296;2023-04-24T03:53:41;21.17;;;12.07;;
51810;SDS011;52468;40.116;18.296;2023-04-24T03:56:12;17.63;;;11.77;;
51810;SDS011;52468;40.116;18.296;2023-04-24T03:58:40;25.43;;;13.40;;
51810;SDS011;52468;40.116;18.296;2023-04-24T04:01:09;23.97;;;15.03;;
51810;SDS011;52468;40.116;18.296;2023-04-24T04:03:59;25.23;;;14.30;;
51810;SDS011;52468;40.116;18.296;2023-04-24T04:06:28;23.10;;;12.83;;
51810;SDS011;52468;40.116;18.296;2023-04-24T04:08:59;23.33;;;12.97;;
51810;SDS011;52468;40.116;18.296;2023-04-24T04:11:27;25.47;;;14.00;;
51810;SDS011;52468;40.116;18.296;2023-04-24T04:13:55;23.07;;;13.70;;
51810;SDS011;52468;40.116;18.296;2023-04-24T04:16:24;27.50;;;14.23;;
51810;SDS011;52468;40.116;18.296;2023-04-24T04:18:57;27.00;;;13.05;;
51810;SDS011;52468;40.116;18.296;2023-04-24T04:21:25;22.23;;;14.97;;
51810;SDS011;52468;40.116;18.296;2023-04-24T04:24:02;23.83;;;13.33;;
51810;SDS011;52468;40.116;18.296;2023-04-24T04:26:37;24.40;;;13.50;;
51810;SDS011;52468;40.116;18.296;2023-04-24T04:29:08;25.57;;;13.80;;
51810;SDS011;52468;40.116;18.296;2023-04-24T04:31:40;21.17;;;13.00;;
51810;SDS011;52468;40.116;18.296;2023-04-24T04:34:11;28.03;;;15.33;;
51810;SDS011;52468;40.116;18.296;2023-04-24T04:36:41;24.47;;;14.80;;
51810;SDS011;52468;40.116;18.296;2023-04-24T04:39:45;21.00;;;12.57;;
51810;SDS011;52468;40.116;18.296;2023-04-24T04:42:19;23.23;;;13.27;;
51810;SDS011;52468;40.116;18.296;2023-04-24T04:44:47;21.77;;;12.90;;
51810;SDS011;52468;40.116;18.296;2023-04-24T04:47:20;25.17;;;13.00;;
51810;SDS011;52468;40.116;18.296;2023-04-24T04:49:53;17.60;;;11.33;;
51810;SDS011;52468;40.116;18.296;2023-04-24T04:52:25;18.43;;;11.70;;
51810;SDS011;52468;40.116;18.296;2023-04-24T04:55:14;22.33;;;11.10;;
51810;SDS011;52468;40.116;18.296;2023-04-24T04:58:00;15.00;;;9.43;;
51810;SDS011;52468;40.116;18.296;2023-04-24T05:00:29;13.50;;;8.73;;
51810;SDS011;52468;40.116;18.296;2023-04-24T05:03:07;13.60;;;8.57;;
51810;SDS011;52468;40.116;18.296;2023-04-24T05:05:45;10.40;;;7.97;;
51810;SDS011;52468;40.116;18.296;2023-04-24T05:08:16;15.57;;;7.60;;
51810;SDS011;52468;40.116;18.296;2023-04-24T05:10:50;15.43;;;8.07;;
51810;SDS011;52468;40.116;18.296;2023-04-24T05:13:17;12.47;;;9.07;;
51810;SDS011;52468;40.116;18.296;2023-04-24T05:15:49;15.33;;;7.90;;
51810;SDS011;52468;40.116;18.296;2023-04-24T05:18:17;10.27;;;6.07;;
51810;SDS011;52468;40.116;18.296;2023-04-24T05:20:45;11.53;;;6.70;;
51810;SDS011;52468;40.116;18.296;2023-04-24T05:23:13;12.40;;;7.40;;
51810;SDS011;52468;40.116;18.296;2023-04-24T05:25:43;7.43;;;6.03;;
51810;SDS011;52468;40.116;18.296;2023-04-24T05:28:12;9.10;;;5.93;;
51810;SDS011;52468;40.116;18.296;2023-04-24T05:30:40;8.83;;;6.60;;
51810;SDS011;52468;40.116;18.296;2023-04-24T05:33:08;11.47;;;6.43;;
51810;SDS011;52468;40.116;18.296;2023-04-24T05:35:37;8.23;;;4.70;;
51810;SDS011;52468;40.116;18.296;2023-04-24T05:38:05;9.73;;;4.87;;
51810;SDS011;52468;40.116;18.296;2023-04-24T05:40:32;9.67;;;5.33;;
51810;SDS011;52468;40.116;18.296;2023-04-24T05:43:00;5.50;;;4.00;;
51810;SDS011;52468;40.116;18.296;2023-04-24T05:45:28;7.97;;;4.03;;
51810;SDS011;52468;40.116;18.296;2023-04-24T05:47:56;5.63;;;3.67;;
51810;SDS011;52468;40.116;18.296;2023-04-24T05:50:24;7.20;;;4.17;;
51810;SDS011;52468;40.116;18.296;2023-04-24T05:52:52;10.23;;;4.50;;
51810;SDS011;52468;40.116;18.296;2023-04-24T05:55:28;7.17;;;4.40;;
51810;SDS011;52468;40.116;18.296;2023-04-24T05:57:57;11.07;;;4.17;;
51810;SDS011;52468;40.116;18.296;2023-04-24T06:00:25;7.73;;;4.13;;
51810;SDS011;52468;40.116;18.296;2023-04-24T06:03:01;5.60;;;3.90;;
51810;SDS011;52468;40.116;18.296;2023-04-24T06:05:31;9.67;;;4.60;;
51810;SDS011;52468;40.116;18.296;2023-04-24T06:07:59;7.37;;;4.87;;
51810;SDS011;52468;40.116;18.296;2023-04-24T06:10:32;9.68;;;4.40;;
51810;SDS011;52468;40.116;18.296;2023-04-24T06:13:00;5.60;;;4.20;;
51810;SDS011;52468;40.116;18.296;2023-04-24T06:15:30;6.50;;;4.60;;
51810;SDS011;52468;40.116;18.296;2023-04-24T06:18:06;5.23;;;4.43;;
51810;SDS011;52468;40.116;18.296;2023-04-24T06:20:35;5.80;;;4.20;;
51810;SDS011;52468;40.116;18.296;2023-04-24T06:23:03;7.00;;;3.97;;
51810;SDS011;52468;40.116;18.296;2023-04-24T06:25:33;7.30;;;3.47;;
51810;SDS011;52468;40.116;18.296;2023-04-24T06:28:01;6.27;;;3.30;;
51810;SDS011;52468;40.116;18.296;2023-04-24T06:30:30;8.40;;;3.80;;
51810;SDS011;52468;40.116;18.296;2023-04-24T06:32:58;10.20;;;4.00;;
51810;SDS011;52468;40.116;18.296;2023-04-24T06:35:29;4.83;;;3.43;;
51810;SDS011;52468;40.116;18.296;2023-04-24T06:37:57;7.53;;;3.83;;
51810;SDS011;52468;40.116;18.296;2023-04-24T06:40:24;6.73;;;4.17;;
51810;SDS011;52468;40.116;18.296;2023-04-24T06:42:53;5.07;;;3.27;;
51810;SDS011;52468;40.116;18.296;2023-04-24T06:45:20;7.03;;;3.83;;
51810;SDS011;52468;40.116;18.296;2023-04-24T06:47:48;7.93;;;3.57;;
51810;SDS011;52468;40.116;18.296;2023-04-24T06:50:16;3.63;;;2.93;;
51810;SDS011;52468;40.116;18.296;2023-04-24T06:52:44;5.47;;;3.33;;
51810;SDS011;52468;40.116;18.296;2023-04-24T06:55:12;7.80;;;3.13;;
51810;SDS011;52468;40.116;18.296;2023-04-24T06:57:42;5.60;;;2.90;;
51810;SDS011;52468;40.116;18.296;2023-04-24T07:00:11;14.90;;;3.90;;
51810;SDS011;52468;40.116;18.296;2023-04-24T07:02:39;11.20;;;3.63;;
51810;SDS011;52468;40.116;18.296;2023-04-24T07:05:07;5.60;;;2.63;;
51810;SDS011;52468;40.116;18.296;2023-04-24T07:07:35;5.07;;;3.20;;
51810;SDS011;52468;40.116;18.296;2023-04-24T07:10:05;6.47;;;2.80;;
51810;SDS011;52468;40.116;18.296;2023-04-24T07:12:33;6.73;;;3.23;;
51810;SDS011;52468;40.116;18.296;2023-04-24T07:15:00;4.93;;;2.80;;
51810;SDS011;52468;40.116;18.296;2023-04-24T07:17:30;5.93;;;2.73;;
51810;SDS011;52468;40.116;18.296;2023-04-24T07:19:58;3.83;;;3.00;;
51810;SDS011;52468;40.116;18.296;2023-04-24T07:22:26;5.57;;;2.83;;
51810;SDS011;52468;40.116;18.296;2023-04-24T07:24:54;5.83;;;2.77;;
51810;SDS011;52468;40.116;18.296;2023-04-24T07:27:21;8.97;;;3.83;;
51810;SDS011;52468;40.116;18.296;2023-04-24T07:29:50;5.10;;;2.93;;
51810;SDS011;52468;40.116;18.296;2023-04-24T07:32:17;6.47;;;3.40;;
51810;SDS011;52468;40.116;18.296;2023-04-24T07:34:45;6.10;;;3.83;;
51810;SDS011;52468;40.116;18.296;2023-04-24T07:37:13;13.33;;;3.17;;
51810;SDS011;52468;40.116;18.296;2023-04-24T07:39:41;6.07;;;3.10;;
51810;SDS011;52468;40.116;18.296;2023-04-24T07:42:09;4.80;;;2.90;;
51810;SDS011;52468;40.116;18.296;2023-04-24T07:44:37;5.13;;;2.67;;
51810;SDS011;52468;40.116;18.296;2023-04-24T07:47:05;6.90;;;2.63;;
51810;SDS011;52468;40.116;18.296;2023-04-24T07:49:33;10.53;;;4.43;;
51810;SDS011;52468;40.116;18.296;2023-04-24T07:52:01;4.17;;;2.60;;
51810;SDS011;52468;40.116;18.296;2023-04-24T07:54:29;5.00;;;2.30;;
51810;SDS011;52468;40.116;18.296;2023-04-24T07:56:57;5.60;;;2.43;;
51810;SDS011;52468;40.116;18.296;2023-04-24T07:59:25;6.07;;;2.77;;
51810;SDS011;52468;40.116;18.296;2023-04-24T08:01:53;5.03;;;2.90;;
51810;SDS011;52468;40.116;18.296;2023-04-24T08:04:21;5.33;;;2.90;;
51810;SDS011;52468;40.116;18.296;2023-04-24T08:06:49;9.77;;;4.30;;
51810;SDS011;52468;40.116;18.296;2023-04-24T08:09:17;4.43;;;2.70;;
51810;SDS011;52468;40.116;18.296;2023-04-24T08:11:44;7.50;;;3.37;;
51810;SDS011;52468;40.116;18.296;2023-04-24T08:14:12;4.73;;;3.00;;
51810;SDS011;52468;40.116;18.296;2023-04-24T08:16:41;7.07;;;2.97;;
51810;SDS011;52468;40.116;18.296;2023-04-24T08:19:10;4.50;;;2.77;;
51810;SDS011;52468;40.116;18.296;2023-04-24T08:21:37;3.87;;;2.77;;
51810;SDS011;52468;40.116;18.296;2023-04-24T08:24:05;5.60;;;2.40;;
51810;SDS011;52468;40.116;18.296;2023-04-24T08:26:35;5.93;;;3.37;;
51810;SDS011;52468;40.116;18.296;2023-04-24T08:29:02;5.63;;;2.47;;
51810;SDS011;52468;40.116;18.296;2023-04-24T08:31:30;4.20;;;3.00;;
51810;SDS011;52468;40.116;18.296;2023-04-24T08:33:58;5.60;;;2.40;;
51810;SDS011;52468;40.116;18.296;2023-04-24T08:36:27;15.37;;;3.70;;
51810;SDS011;52468;40.116;18.296;2023-04-24T08:39:02;5.43;;;3.07;;
51810;SDS011;52468;40.116;18.296;2023-04-24T08:41:30;8.40;;;3.47;;
51810;SDS011;52468;40.116;18.296;2023-04-24T08:43:58;9.17;;;3.50;;
51810;SDS011;52468;40.116;18.296;2023-04-24T08:46:26;6.67;;;3.83;;
51810;SDS011;52468;40.116;18.296;2023-04-24T08:48:56;5.80;;;3.23;;
51810;SDS011;52468;40.116;18.296;2023-04-24T08:51:24;4.70;;;2.83;;
51810;SDS011;52468;40.116;18.296;2023-04-24T08:53:54;5.43;;;2.70;;
51810;SDS011;52468;40.116;18.296;2023-04-24T08:56:23;3.53;;;2.83;;
51810;SDS011;52468;40.116;18.296;2023-04-24T08:58:51;4.67;;;3.17;;
51810;SDS011;52468;40.116;18.296;2023-04-24T09:01:21;3.30;;;2.47;;
51810;SDS011;52468;40.116;18.296;2023-04-24T09:03:51;6.73;;;2.77;;
51810;SDS011;52468;40.116;18.296;2023-04-24T09:06:20;7.17;;;3.07;;
51810;SDS011;52468;40.116;18.296;2023-04-24T09:08:50;5.30;;;3.53;;
51810;SDS011;52468;40.116;18.296;2023-04-24T09:11:21;6.10;;;2.50;;
51810;SDS011;52468;40.116;18.296;2023-04-24T09:13:52;4.53;;;2.77;;
51810;SDS011;52468;40.116;18.296;2023-04-24T09:16:20;3.90;;;2.60;;
51810;SDS011;52468;40.116;18.296;2023-04-24T09:18:50;7.87;;;2.87;;
51810;SDS011;52468;40.116;18.296;2023-04-24T09:21:20;4.60;;;3.13;;
51810;SDS011;52468;40.116;18.296;2023-04-24T09:23:58;6.93;;;4.97;;
51810;SDS011;52468;40.116;18.296;2023-04-24T09:26:31;6.90;;;4.30;;
51810;SDS011;52468;40.116;18.296;2023-04-24T09:28:59;5.60;;;4.03;;
51810;SDS011;52468;40.116;18.296;2023-04-24T09:31:28;7.33;;;5.23;;
51810;SDS011;52468;40.116;18.296;2023-04-24T09:34:00;7.50;;;6.07;;
51810;SDS011;52468;40.116;18.296;2023-04-24T09:36:34;6.00;;;3.83;;
51810;SDS011;52468;40.116;18.296;2023-04-24T09:39:07;7.63;;;6.93;;
51810;SDS011;52468;40.116;18.296;2023-04-24T09:41:46;8.50;;;4.07;;
51810;SDS011;52468;40.116;18.296;2023-04-24T09:44:18;4.30;;;3.13;;
51810;SDS011;52468;40.116;18.296;2023-04-24T09:46:54;5.10;;;3.07;;
51810;SDS011;52468;40.116;18.296;2023-04-24T09:49:24;5.10;;;3.20;;
51810;SDS011;52468;40.116;18.296;2023-04-24T09:52:05;5.07;;;3.85;;
51810;SDS011;52468;40.116;18.296;2023-04-24T09:54:34;11.50;;;5.90;;
51810;SDS011;52468;40.116;18.296;2023-04-24T09:57:03;9.63;;;4.83;;
51810;SDS011;52468;40.116;18.296;2023-04-24T09:59:32;10.23;;;7.37;;
51810;SDS011;52468;40.116;18.296;2023-04-24T10:02:01;7.17;;;5.27;;
51810;SDS011;52468;40.116;18.296;2023-04-24T10:04:29;5.80;;;4.73;;
51810;SDS011;52468;40.116;18.296;2023-04-24T10:06:57;5.53;;;3.27;;
51810;SDS011;52468;40.116;18.296;2023-04-24T10:09:26;4.43;;;3.90;;
51810;SDS011;52468;40.116;18.296;2023-04-24T10:11:54;6.47;;;3.97;;
51810;SDS011;52468;40.116;18.296;2023-04-24T10:14:22;4.50;;;3.40;;
51810;SDS011;52468;40.116;18.296;2023-04-24T10:16:53;6.90;;;3.53;;
51810;SDS011;52468;40.116;18.296;2023-04-24T10:19:25;4.13;;;3.00;;
51810;SDS011;52468;40.116;18.296;2023-04-24T10:21:53;5.57;;;3.87;;
51810;SDS011;52468;40.116;18.296;2023-04-24T10:24:22;4.83;;;3.53;;
51810;SDS011;52468;40.116;18.296;2023-04-24T10:26:50;4.30;;;2.70;;
51810;SDS011;52468;40.116;18.296;2023-04-24T10:29:18;9.63;;;3.10;;
51810;SDS011;52468;40.116;18.296;2023-04-24T10:31:48;6.33;;;4.40;;
51810;SDS011;52468;40.116;18.296;2023-04-24T10:34:16;6.00;;;2.90;;
51810;SDS011;52468;40.116;18.296;2023-04-24T10:36:49;5.07;;;3.00;;
51810;SDS011;52468;40.116;18.296;2023-04-24T10:39:20;6.22;;;3.35;;
51810;SDS011;52468;40.116;18.296;2023-04-24T10:41:49;8.63;;;2.90;;
51810;SDS011;52468;40.116;18.296;2023-04-24T10:44:17;12.93;;;3.63;;
51810;SDS011;52468;40.116;18.296;2023-04-24T10:46:46;6.60;;;3.13;;
51810;SDS011;52468;40.116;18.296;2023-04-24T10:49:27;4.57;;;2.30;;
51810;SDS011;52468;40.116;18.296;2023-04-24T10:52:00;4.53;;;3.07;;
51810;SDS011;52468;40.116;18.296;2023-04-24T10:54:36;5.15;;;3.85;;
51810;SDS011;52468;40.116;18.296;2023-04-24T10:59:51;5.30;;;2.63;;
51810;SDS011;52468;40.116;18.296;2023-04-24T11:02:36;4.67;;;3.70;;
51810;SDS011;52468;40.116;18.296;2023-04-24T11:05:05;8.70;;;4.43;;
51810;SDS011;52468;40.116;18.296;2023-04-24T11:10:40;5.57;;;3.83;;
51810;SDS011;52468;40.116;18.296;2023-04-24T11:13:15;8.15;;;6.60;;
51810;SDS011;52468;40.116;18.296;2023-04-24T11:15:43;8.03;;;3.80;;
51810;SDS011;52468;40.116;18.296;2023-04-24T11:18:14;6.00;;;3.07;;
51810;SDS011;52468;40.116;18.296;2023-04-24T11:20:46;7.70;;;3.57;;
51810;SDS011;52468;40.116;18.296;2023-04-24T11:23:13;13.50;;;3.60;;
51810;SDS011;52468;40.116;18.296;2023-04-24T11:25:41;9.20;;;3.23;;
51810;SDS011;52468;40.116;18.296;2023-04-24T11:28:09;7.13;;;4.03;;
51810;SDS011;52468;40.116;18.296;2023-04-24T11:30:43;8.07;;;6.73;;
51810;SDS011;52468;40.116;18.296;2023-04-24T11:33:11;7.13;;;3.37;;
51810;SDS011;52468;40.116;18.296;2023-04-24T11:35:46;5.77;;;3.43;;
51810;SDS011;52468;40.116;18.296;2023-04-24T11:38:14;6.27;;;4.40;;
51810;SDS011;52468;40.116;18.296;2023-04-24T11:40:49;5.30;;;3.60;;
51810;SDS011;52468;40.116;18.296;2023-04-24T11:43:19;7.87;;;4.23;;
51810;SDS011;52468;40.116;18.296;2023-04-24T11:45:49;8.13;;;4.97;;
51810;SDS011;52468;40.116;18.296;2023-04-24T11:48:20;5.27;;;3.57;;
51810;SDS011;52468;40.116;18.296;2023-04-24T11:50:48;9.67;;;4.77;;
51810;SDS011;52468;40.116;18.296;2023-04-24T11:53:18;7.00;;;4.30;;
51810;SDS011;52468;40.116;18.296;2023-04-24T11:55:49;5.82;;;3.65;;
51810;SDS011;52468;40.116;18.296;2023-04-24T11:58:20;6.30;;;3.33;;
51810;SDS011;52468;40.116;18.296;2023-04-24T12:00:55;6.90;;;3.58;;
51810;SDS011;52468;40.116;18.296;2023-04-24T12:03:24;6.47;;;4.33;;
51810;SDS011;52468;40.116;18.296;2023-04-24T12:05:52;7.40;;;2.73;;
51810;SDS011;52468;40.116;18.296;2023-04-24T12:08:31;5.97;;;3.43;;
51810;SDS011;52468;40.116;18.296;2023-04-24T12:11:00;11.17;;;4.20;;
51810;SDS011;52468;40.116;18.296;2023-04-24T12:13:28;9.97;;;4.03;;
51810;SDS011;52468;40.116;18.296;2023-04-24T12:15:56;9.60;;;4.27;;
51810;SDS011;52468;40.116;18.296;2023-04-24T12:18:25;6.27;;;4.20;;
51810;SDS011;52468;40.116;18.296;2023-04-24T12:20:53;8.03;;;3.23;;
51810;SDS011;52468;40.116;18.296;2023-04-24T12:23:35;8.17;;;3.63;;
51810;SDS011;52468;40.116;18.296;2023-04-24T12:26:03;6.43;;;3.53;;
51810;SDS011;52468;40.116;18.296;2023-04-24T12:28:35;5.97;;;3.37;;
51810;SDS011;52468;40.116;18.296;2023-04-24T12:31:04;8.00;;;4.10;;
51810;SDS011;52468;40.116;18.296;2023-04-24T12:33:34;8.30;;;4.03;;
51810;SDS011;52468;40.116;18.296;2023-04-24T12:36:03;7.00;;;3.53;;
51810;SDS011;52468;40.116;18.296;2023-04-24T12:38:32;5.47;;;3.80;;
51810;SDS011;52468;40.116;18.296;2023-04-24T12:41:08;6.57;;;4.03;;
51810;SDS011;52468;40.116;18.296;2023-04-24T12:43:37;4.20;;;2.53;;
51810;SDS011;52468;40.116;18.296;2023-04-24T12:46:05;5.37;;;3.00;;
51810;SDS011;52468;40.116;18.296;2023-04-24T12:48:33;8.67;;;4.40;;
51810;SDS011;52468;40.116;18.296;2023-04-24T12:51:00;6.87;;;3.60;;
51810;SDS011;52468;40.116;18.296;2023-04-24T12:53:28;8.33;;;2.93;;
51810;SDS011;52468;40.116;18.296;2023-04-24T12:55:57;6.27;;;3.53;;
51810;SDS011;52468;40.116;18.296;2023-04-24T12:58:24;7.93;;;3.03;;
51810;SDS011;52468;40.116;18.296;2023-04-24T13:00:52;10.03;;;3.73;;
51810;SDS011;52468;40.116;18.296;2023-04-24T13:03:21;8.07;;;4.83;;
51810;SDS011;52468;40.116;18.296;2023-04-24T13:05:49;7.77;;;3.40;;
51810;SDS011;52468;40.116;18.296;2023-04-24T13:08:17;15.03;;;7.10;;
51810;SDS011;52468;40.116;18.296;2023-04-24T13:10:45;8.17;;;3.20;;
51810;SDS011;52468;40.116;18.296;2023-04-24T13:13:13;7.20;;;2.83;;
51810;SDS011;52468;40.116;18.296;2023-04-24T13:15:41;6.50;;;3.53;;
51810;SDS011;52468;40.116;18.296;2023-04-24T13:18:09;6.80;;;2.63;;
51810;SDS011;52468;40.116;18.296;2023-04-24T13:20:36;8.97;;;3.47;;
51810;SDS011;52468;40.116;18.296;2023-04-24T13:23:04;4.90;;;2.87;;
51810;SDS011;52468;40.116;18.296;2023-04-24T13:25:34;4.73;;;3.43;;
51810;SDS011;52468;40.116;18.296;2023-04-24T13:28:03;6.63;;;3.47;;
51810;SDS011;52468;40.116;18.296;2023-04-24T13:30:31;6.60;;;2.93;;
51810;SDS011;52468;40.116;18.296;2023-04-24T13:32:59;7.37;;;3.37;;
51810;SDS011;52468;40.116;18.296;2023-04-24T13:35:27;5.40;;;2.50;;
51810;SDS011;52468;40.116;18.296;2023-04-24T13:37:55;4.13;;;2.80;;
51810;SDS011;52468;40.116;18.296;2023-04-24T13:40:23;3.83;;;2.67;;
51810;SDS011;52468;40.116;18.296;2023-04-24T13:42:51;5.20;;;3.17;;
51810;SDS011;52468;40.116;18.296;2023-04-24T13:45:18;8.27;;;5.30;;
51810;SDS011;52468;40.116;18.296;2023-04-24T13:47:50;12.37;;;4.50;;
51810;SDS011;52468;40.116;18.296;2023-04-24T13:50:19;10.13;;;5.83;;
51810;SDS011;52468;40.116;18.296;2023-04-24T13:52:47;10.30;;;2.97;;
51810;SDS011;52468;40.116;18.296;2023-04-24T13:55:15;10.43;;;3.50;;
51810;SDS011;52468;40.116;18.296;2023-04-24T13:57:43;9.93;;;4.07;;
51810;SDS011;52468;40.116;18.296;2023-04-24T14:00:11;7.23;;;3.10;;
51810;SDS011;52468;40.116;18.296;2023-04-24T14:02:40;9.50;;;5.90;;
51810;SDS011;52468;40.116;18.296;2023-04-24T14:05:08;61.20;;;35.87;;
51810;SDS011;52468;40.116;18.296;2023-04-24T14:07:38;10.17;;;4.67;;
51810;SDS011;52468;40.116;18.296;2023-04-24T14:10:06;8.97;;;4.20;;
51810;SDS011;52468;40.116;18.296;2023-04-24T14:12:34;6.77;;;3.40;;
51810;SDS011;52468;40.116;18.296;2023-04-24T14:15:02;5.13;;;3.60;;
51810;SDS011;52468;40.116;18.296;2023-04-24T14:17:31;18.27;;;11.83;;
51810;SDS011;52468;40.116;18.296;2023-04-24T14:19:59;5.47;;;3.20;;
51810;SDS011;52468;40.116;18.296;2023-04-24T14:22:28;8.93;;;6.25;;
51810;SDS011;52468;40.116;18.296;2023-04-24T14:24:57;7.68;;;4.45;;
51810;SDS011;52468;40.116;18.296;2023-04-24T14:27:25;8.07;;;4.38;;
51810;SDS011;52468;40.116;18.296;2023-04-24T14:29:53;16.23;;;9.57;;
51810;SDS011;52468;40.116;18.296;2023-04-24T14:32:21;7.57;;;3.65;;
51810;SDS011;52468;40.116;18.296;2023-04-24T14:34:49;5.75;;;2.70;;
51810;SDS011;52468;40.116;18.296;2023-04-24T14:37:17;6.30;;;3.38;;
51810;SDS011;52468;40.116;18.296;2023-04-24T14:39:45;7.30;;;2.60;;
51810;SDS011;52468;40.116;18.296;2023-04-24T14:42:16;6.33;;;3.27;;
51810;SDS011;52468;40.116;18.296;2023-04-24T14:44:47;6.37;;;3.03;;